Time;durP1;ratioP1;P1;durP2;ratioP2;P2;SDS_P1;SDS_P2;PMS_P1;PMS_P2;Temp;Humidity;BMP_temperature;BMP_pressure;BME280_temperature;BME280_humidity;BME280_pressure;Samples;Min_cycle;Max_cycle;Signal;HPM_P1;HPM_P2
2021/08/22 00:07:55;;;;;;;3.40;1.50;;;;;;;16.63;73.64;100357.78;4930783;29;20047;-74
2021/08/22 00:27:34;;;;;;;3.22;1.13;;;;;;;16.16;76.48;100344.91;4939480;29;20135;-77
2021/08/22 00:47:21;;;;;;;;;;;;;;;;;;;;;
2021/08/22 00:51:00;;;;;;;;;;;;;;;;;;;;;
2021/08/22 00:54:22;;;;;;;9.60;1.30;;;;;;;15.98;77.29;100389.94;4810335;29;20161;-78
2021/08/22 01:00:26;;;;;;;1.42;1.00;;;;;;;15.73;77.34;100369.94;4811518;29;20038;-78
2021/08/22 01:03:15;;;;;;;2.33;1.00;;;;;;;15.69;77.67;100380.75;4798226;29;20050;-78
2021/08/22 01:05:51;;;;;;;2.85;1.52;;;;;;;15.69;77.55;100390.97;4831280;29;20101;-80
2021/08/22 01:12:32;;;;;;;5.63;1.27;;;;;;;15.62;77.89;100407.06;4905838;29;20036;-79
2021/08/22 01:29:09;;;;;;;1.02;0.82;;;;;;;15.32;78.26;100398.16;4913146;29;20077;-79
2021/08/22 01:41:49;;;;;;;1.42;0.80;;;;;;;15.02;78.56;100394.72;4862034;29;20036;-78
2021/08/22 02:28:01;;;;;;;1.95;1.00;;;;;;;14.84;79.38;100432.94;4903391;28;20075;-75
2021/08/22 02:37:57;;;;;;;;;;;;;;;;;;;;;
2021/08/22 02:41:14;;;;;;;;;;;;;;;;;;;;;
2021/08/22 02:44:30;;;;;;;1.35;0.60;;;;;;;14.89;78.65;100437.56;4961353;28;20091;-77
2021/08/22 02:50:48;;;;;;;2.35;1.30;;;;;;;14.58;78.80;100401.31;4961291;28;20082;-78
2021/08/22 03:00:50;;;;;;;;;;;;;;;;;;;;;
2021/08/22 03:07:42;;;;;;;0.45;0.45;;;;;;;15.13;78.68;100445.00;4828423;29;20767;-78
2021/08/22 03:31:12;;;;;;;0.60;0.60;;;;;;;15.54;78.25;100438.88;4828414;29;20044;-77
2021/08/22 03:37:35;;;;;;;4.88;1.02;;;;;;;15.61;77.92;100439.31;4938084;29;20469;-76
2021/08/22 03:43:26;;;;;;;0.40;0.40;;;;;;;15.42;77.37;100424.72;4956885;28;20102;-75
2021/08/22 03:46:06;;;;;;;1.02;0.73;;;;;;;15.39;77.50;100428.91;4955091;29;20027;-77
2021/08/22 03:48:46;;;;;;;0.70;0.70;;;;;;;15.44;77.72;100439.84;4958101;29;20069;-77
2021/08/22 04:11:56;;;;;;;2.03;1.00;;;;;;;15.21;77.35;100429.72;4863191;29;20032;-76
2021/08/22 04:28:57;;;;;;;2.65;1.13;;;;;;;15.10;78.20;100476.69;4865371;29;20041;-74
2021/08/22 04:59:22;;;;;;;1.02;0.82;;;;;;;15.61;78.15;100479.84;4978214;28;20031;-78
2021/08/22 05:26:58;;;;;;;0.65;0.60;;;;;;;15.17;77.83;100474.41;5038180;28;20090;-75
2021/08/22 05:33:14;;;;;;;1.60;0.98;;;;;;;15.19;78.11;100499.69;4995272;28;20138;-75
2021/08/22 05:39:24;;;;;;;1.02;0.93;;;;;;;15.10;78.05;100508.91;4996065;28;20089;-76
2021/08/22 05:49:03;;;;;;;;;;;;;;;;;;;;;
2021/08/22 05:55:29;;;;;;;1.38;0.85;;;;;;;15.27;79.16;100519.44;4896066;29;20419;-77
2021/08/22 05:58:07;;;;;;;;;;;;;;;;;;;;;
2021/08/22 06:05:04;;;;;;;;;;;;;;;;;;;;;
2021/08/22 06:07:49;;;;;;;;;;;;;;;;;;;;;
2021/08/22 06:25:24;;;;;;;3.40;1.17;;;;;;;15.31;80.58;100545.28;4810307;29;20430;-75
2021/08/22 06:28:33;;;;;;;7.28;1.42;;;;;;;15.37;80.50;100555.13;4811414;29;20046;-75
2021/08/22 06:31:10;;;;;;;6.68;1.58;;;;;;;15.23;80.69;100537.66;4900617;29;20838;-75
2021/08/22 06:37:09;;;;;;;11.90;1.45;;;;;;;15.36;80.61;100553.47;4936568;28;20031;-74
2021/08/22 06:39:58;;;;;;;5.10;1.20;;;;;;;15.48;80.48;100566.84;4940156;28;20106;-76
2021/08/22 06:43:31;;;;;;;7.32;1.42;;;;;;;15.50;80.80;100559.09;4994507;28;20464;-75
2021/08/22 06:59:30;;;;;;;2.10;1.42;;;;;;;16.68;79.49;100603.41;5895498;23;20054;-74
2021/08/22 07:01:55;;;;;;;1.52;1.27;;;;;;;16.87;78.86;100606.94;4983941;28;20049;-75
2021/08/22 07:04:40;;;;;;;3.28;1.65;;;;;;;17.08;78.59;100606.56;4968802;28;20030;-74
2021/08/22 07:07:41;;;;;;;2.92;1.15;;;;;;;17.36;77.91;100620.41;4985876;28;20112;-75
2021/08/22 08:01:14;;;;;;;0.85;0.77;;;;;;;18.72;71.06;100657.53;5060196;28;20102;-75
2021/08/22 08:07:10;;;;;;;0.90;0.73;;;;;;;19.52;70.96;100679.00;5053123;28;20107;-75
2021/08/22 08:40:41;;;;;;;0.43;0.43;;;;;;;21.73;63.14;100726.75;5002811;28;20030;-75
2021/08/22 08:54:09;;;;;;;;;;;;;;;;;;;;;
2021/08/22 09:33:24;;;;;;;;;;;;;;;;;;;;;
2021/08/22 09:37:03;;;;;;;;;;;;;;;;;;;;;
2021/08/22 09:47:13;;;;;;;0.60;0.55;;;;;;;26.87;49.48;100799.94;4936509;29;20354;-72
2021/08/22 09:50:26;;;;;;;0.73;0.73;;;;;;;27.03;47.32;100804.66;4935286;29;20136;-73
2021/08/22 09:53:36;;;;;;;1.25;0.70;;;;;;;26.95;46.93;100812.13;4934386;29;20030;-75
2021/08/22 09:56:48;;;;;;;0.60;0.60;;;;;;;27.15;47.62;100807.31;4935716;28;20044;-77
2021/08/22 09:59:42;;;;;;;0.60;0.60;;;;;;;27.43;46.84;100814.69;4939502;29;20066;-72
2021/08/22 10:02:44;;;;;;;0.60;0.60;;;;;;;27.72;46.37;100832.09;4924648;29;20035;-74
2021/08/22 10:05:45;;;;;;;0.40;0.40;;;;;;;27.42;44.13;100818.69;4926223;29;20063;-77
2021/08/22 10:08:23;;;;;;;1.38;0.82;;;;;;;26.94;43.25;100827.31;5054187;28;20513;-77
2021/08/22 10:10:58;;;;;;;0.80;0.80;;;;;;;26.39;44.34;100813.28;5053421;28;20033;-74
2021/08/22 10:13:24;;;;;;;0.47;0.47;;;;;;;26.38;46.79;100820.84;5036330;28;20616;-75
2021/08/22 10:15:51;;;;;;;1.70;0.85;;;;;;;26.54;46.75;100815.22;5025883;28;20040;-74
2021/08/22 10:18:26;;;;;;;4.55;1.27;;;;;;;26.95;45.34;100824.13;5021669;28;20031;-76
2021/08/22 10:21:00;;;;;;;0.60;0.45;;;;;;;26.92;43.22;100813.66;5041933;28;20055;-73
2021/08/22 10:23:38;;;;;;;0.63;0.63;;;;;;;26.89;44.04;100820.00;5036663;28;20056;-76
2021/08/22 10:26:05;;;;;;;1.15;0.80;;;;;;;26.73;42.27;100822.06;5042600;28;20383;-77
2021/08/22 10:29:00;;;;;;;0.65;0.55;;;;;;;26.70;43.90;100828.41;5040327;28;20033;-75
2021/08/22 10:31:58;;;;;;;0.30;0.30;;;;;;;26.80;44.01;100833.44;5050196;28;20025;-77
2021/08/22 10:34:27;;;;;;;1.95;0.60;;;;;;;27.06;44.10;100829.16;5039575;28;20131;-77
2021/08/22 10:37:01;;;;;;;0.40;0.40;;;;;;;27.16;43.04;100823.78;5056602;28;20045;-78
2021/08/22 10:39:34;;;;;;;0.73;0.50;;;;;;;27.48;43.15;100829.25;5023152;28;20060;-75
2021/08/22 10:42:21;;;;;;;0.52;0.45;;;;;;;27.77;42.81;100828.94;5011324;28;20612;-76
2021/08/22 10:46:28;;;;;;;0.40;0.32;;;;;;;27.99;43.10;100845.03;5037430;28;20140;-77
2021/08/22 10:52:33;;;;;;;2.47;0.57;;;;;;;28.51;39.98;100847.47;5051966;28;20040;-76
2021/08/22 10:55:38;;;;;;;;;;;;;;;;;;;;;
2021/08/22 11:02:44;;;;;;;;;;;;;;;;;;;;;
2021/08/22 11:13:29;;;;;;;0.40;0.40;;;;;;;28.63;39.60;100838.81;4864510;29;20061;-75
2021/08/22 11:26:43;;;;;;;;;;;;;;;;;;;;;
2021/08/22 11:30:00;;;;;;;0.50;0.40;;;;;;;32.87;34.13;100865.16;4841443;29;20064;-77
2021/08/22 11:32:49;;;;;;;;;;;;;;;32.64;32.35;100862.78;4843150;29;20046;-76
2021/08/22 11:36:19;;;;;;;0.25;0.20;;;;;;;32.64;30.57;100861.97;4846583;29;19964;-75
2021/08/22 11:39:43;;;;;;;0.50;0.50;;;;;;;32.63;29.85;100866.00;4830989;29;20050;-75
2021/08/22 11:42:58;;;;;;;0.40;0.40;;;;;;;32.90;28.77;100849.38;4873665;29;20043;-77
2021/08/22 11:45:46;;;;;;;0.30;0.30;;;;;;;32.44;29.57;100856.72;4923151;29;20039;-76
2021/08/22 11:48:22;;;;;;;0.60;0.60;;;;;;;31.65;30.16;100877.28;4931426;29;20032;-77
2021/08/22 11:50:52;;;;;;;0.50;0.30;;;;;;;30.74;31.55;100847.03;5029354;28;20045;-76
2021/08/22 11:56:46;;;;;;;0.47;0.45;;;;;;;31.52;33.49;100866.75;5014494;28;20061;-77
2021/08/22 11:59:41;;;;;;;;;;;;;;;;;;;;;
2021/08/22 12:02:22;;;;;;;0.70;0.47;;;;;;;33.45;28.55;100873.44;5073107;28;20033;-76
2021/08/22 12:05:25;;;;;;;0.47;0.40;;;;;;;31.93;29.83;100877.75;5059895;28;20033;-80
2021/08/22 12:08:01;;;;;;;0.50;0.50;;;;;;;30.63;31.66;100865.91;5057850;28;20025;-75
2021/08/22 12:10:29;;;;;;;0.47;0.47;;;;;;;29.86;32.98;100877.78;5061945;28;20528;-76
2021/08/22 12:13:01;;;;;;;0.30;0.30;;;;;;;29.28;33.92;100875.47;5041086;28;20033;-73
2021/08/22 12:15:34;;;;;;;1.70;0.30;;;;;;;28.92;35.49;100878.63;5031689;28;20036;-74
2021/08/22 12:18:21;;;;;;;4.10;0.68;;;;;;;28.39;35.80;100899.91;5044593;28;20025;-73
2021/08/22 12:21:03;;;;;;;0.32;0.32;;;;;;;27.74;37.25;100891.50;5052236;28;20451;-75
2021/08/22 12:23:32;;;;;;;0.55;0.55;;;;;;;27.15;38.43;100889.50;5049018;28;20152;-74
2021/08/22 12:26:27;;;;;;;1.08;0.80;;;;;;;26.63;39.64;100888.75;5039572;28;21110;-75
2021/08/22 12:29:12;;;;;;;0.50;0.50;;;;;;;26.35;40.44;100876.84;5059892;28;20470;-76
2021/08/22 12:31:39;;;;;;;0.50;0.30;;;;;;;26.78;41.37;100897.50;5048990;28;20174;-75
2021/08/22 12:34:10;;;;;;;0.40;0.40;;;;;;;27.55;38.86;100897.97;5040608;28;20482;-75
2021/08/22 12:36:38;;;;;;;0.85;0.68;;;;;;;27.64;38.95;100898.53;5040732;28;20083;-74
2021/08/22 12:39:09;;;;;;;4.75;0.50;;;;;;;27.46;39.49;100893.38;5052713;28;20013;-75
2021/08/22 12:41:46;;;;;;;0.60;0.50;;;;;;;27.12;40.08;100895.06;5041510;28;20028;-75
2021/08/22 12:44:14;;;;;;;0.25;0.25;;;;;;;27.33;41.19;100895.53;5034233;28;20029;-75
2021/08/22 12:46:40;;;;;;;0.50;0.50;;;;;;;27.88;39.68;100903.03;5057752;28;20433;-74
2021/08/22 12:49:07;;;;;;;0.52;0.50;;;;;;;27.93;38.90;100905.50;5051488;28;20029;-74
2021/08/22 12:51:36;;;;;;;0.80;0.65;;;;;;;27.76;38.94;100914.41;5056760;28;20016;-74
2021/08/22 12:55:17;;;;;;;0.45;0.45;;;;;;;28.49;39.54;100908.88;5046953;28;20033;-74
2021/08/22 12:58:03;;;;;;;0.82;0.30;;;;;;;30.50;36.48;100912.56;5005121;28;20095;-76
2021/08/22 13:00:30;;;;;;;0.90;0.50;;;;;;;30.70;33.58;100919.56;5058694;28;20052;-75
2021/08/22 13:02:57;;;;;;;1.60;0.52;;;;;;;30.49;33.20;100913.78;5039398;28;20025;-75
2021/08/22 13:05:22;;;;;;;1.88;0.60;;;;;;;30.60;34.93;100917.50;5043731;28;20032;-78
2021/08/22 13:07:48;;;;;;;0.32;0.32;;;;;;;30.96;34.38;100917.72;5022207;28;20033;-76
2021/08/22 13:10:13;;;;;;;0.50;0.30;;;;;;;30.91;33.88;100930.19;5055965;28;20027;-77
2021/08/22 13:12:39;;;;;;;0.47;0.30;;;;;;;31.00;33.52;100929.88;5055010;28;20020;-75
2021/08/22 13:15:08;;;;;;;0.30;0.30;;;;;;;31.31;33.60;100939.72;5004233;28;20108;-74
2021/08/22 13:17:35;;;;;;;0.68;0.30;;;;;;;31.79;33.23;100933.06;5025926;28;20029;-73
2021/08/22 13:20:36;;;;;;;;;;;;;;;;;;;;;
2021/08/22 13:24:00;;;;;;;0.30;0.30;;;;;;;36.83;28.38;100950.34;4953237;28;20107;-75
2021/08/22 13:33:07;;;;;;;;;;;;;;;;;;;;;
2021/08/22 13:35:38;;;;;;;0.50;0.30;;;;;;;32.66;28.33;100939.59;4992493;28;20097;-74
2021/08/22 13:38:06;;;;;;;0.65;0.28;;;;;;;31.53;29.94;100934.16;5033603;28;20017;-76
2021/08/22 13:41:16;;;;;;;0.52;0.30;;;;;;;30.77;31.24;100928.09;5034099;28;20025;-74
2021/08/22 13:44:08;;;;;;;0.20;0.20;;;;;;;30.19;32.54;100920.34;5008093;28;20059;-74
2021/08/22 13:53:40;;;;;;;0.45;0.30;;;;;;;30.35;34.09;100937.81;4899707;29;20127;-74
2021/08/22 13:56:30;;;;;;;0.30;0.25;;;;;;;31.21;34.21;100936.84;4978190;28;20047;-77
2021/08/22 13:59:09;;;;;;;;;;;;;;;;;;;;;
2021/08/22 14:01:45;;;;;;;;;;;;;;;;;;;;;
2021/08/22 14:04:55;;;;;;;0.20;0.20;;;;;;;38.93;27.43;100953.75;4969381;28;20087;-75
2021/08/22 14:08:20;;;;;;;;;;;;;;;;;;;;;
2021/08/22 14:11:29;;;;;;;0.22;0.10;;;;;;;43.10;23.41;100946.94;4980662;28;20117;-75
2021/08/22 14:14:36;;;;;;;0.30;0.10;;;;;;;44.54;22.21;100946.53;4969795;28;20073;-79
2021/08/22 14:18:02;;;;;;;;;;;;;;;;;;;;;
2021/08/22 14:20:38;;;;;;;;;;;;;;;;;;;;;
2021/08/22 14:30:56;;;;;;;;;;;;;;;;;;;;;
2021/08/22 14:33:45;;;;;;;;;;;;;;;;;;;;;
2021/08/22 14:37:04;;;;;;;;;;;;;;;;;;;;;
2021/08/22 14:39:30;;;;;;;0.15;0.15;;;;;;;43.49;18.30;100916.34;4984515;28;20126;-75
2021/08/22 14:42:22;;;;;;;0.28;0.20;;;;;;;42.35;17.98;100923.06;4990940;28;20066;-76
2021/08/22 14:45:01;;;;;;;;;;;;;;;;;;;;;
2021/08/22 15:13:02;;;;;;;0.10;0.10;;;;;;;46.30;15.72;100938.84;4986323;28;20023;-80
2021/08/22 15:19:53;;;;;;;0.20;0.10;;;;;;;46.97;16.12;100941.00;5034474;28;20778;-78
2021/08/22 15:23:20;;;;;;;0.20;0.20;;;;;;;47.35;15.28;100949.81;5056500;28;20025;-79
2021/08/22 15:29:56;;;;;;;0.70;0.20;;;;;;;47.57;14.38;100946.28;5044367;28;20044;-79
2021/08/22 15:36:34;;;;;;;0.30;0.20;;;;;;;46.44;13.45;100940.09;5059438;28;20095;-76
2021/08/22 15:53:00;;;;;;;0.22;0.22;;;;;;;43.02;16.58;100934.94;5602748;22;20054;-78
2021/08/22 16:08:55;;;;;;;;;;;;;;;;;;;;;
2021/08/22 16:11:31;;;;;;;0.73;0.50;;;;;;;37.03;22.32;100914.13;4928731;29;20087;-77
2021/08/22 16:14:08;;;;;;;0.52;0.47;;;;;;;35.89;23.70;100922.59;4957394;28;20222;-79
2021/08/22 16:16:45;;;;;;;0.30;0.30;;;;;;;34.68;24.50;100921.59;4958488;28;20034;-77
2021/08/22 16:20:08;;;;;;;;;;;;;;;;;;;;;
2021/08/22 16:22:37;;;;;;;0.38;0.38;;;;;;;32.43;27.83;100931.50;4970773;28;20143;-76
2021/08/22 16:25:22;;;;;;;0.52;0.43;;;;;;;32.33;29.18;100932.31;4944181;28;20043;-75
2021/08/22 16:27:50;;;;;;;1.23;0.68;;;;;;;32.79;29.28;100931.50;4971147;28;20037;-77
2021/08/22 16:30:17;;;;;;;0.30;0.30;;;;;;;33.14;28.95;100946.81;4971457;28;20399;-77
2021/08/22 16:32:44;;;;;;;1.25;0.68;;;;;;;33.50;28.68;100945.88;4963861;28;20094;-76
2021/08/22 16:35:09;;;;;;;2.17;0.30;;;;;;;34.22;28.11;100946.28;4983703;28;20034;-76
2021/08/22 16:37:38;;;;;;;0.57;0.40;;;;;;;34.59;27.06;100936.28;5004415;28;20032;-76
2021/08/22 16:40:04;;;;;;;2.25;1.33;;;;;;;34.54;26.87;100939.56;5007308;28;20056;-78
2021/08/22 16:42:29;;;;;;;0.57;0.52;;;;;;;34.52;27.19;100935.53;5009943;28;20018;-76
2021/08/22 16:44:58;;;;;;;0.50;0.40;;;;;;;34.43;27.04;100955.88;5011064;28;20030;-76
2021/08/22 16:48:22;;;;;;;;;;;;;;;;;;;;;
2021/08/22 16:51:44;;;;;;;0.50;0.30;;;;;;;33.89;28.08;100945.72;5012289;28;20104;-77
2021/08/22 16:58:29;;;;;;;;;;;;;;;;;;;;;
2021/08/22 17:01:49;;;;;;;;;;;;;;;;;;;;;
2021/08/22 17:10:48;;;;;;;0.70;0.30;;;;;;;34.03;27.92;100955.34;4842963;29;20124;-78
2021/08/22 17:14:17;;;;;;;;;;;;;;;;;;;;;
2021/08/22 17:20:52;;;;;;;0.38;0.38;;;;;;;32.67;29.66;100946.09;4830028;29;20037;-79
2021/08/22 17:38:10;;;;;;;2.13;0.40;;;;;;;32.53;29.98;100964.69;4729953;30;20102;-79
2021/08/22 17:45:08;;;;;;;;;;;;;;;;;;;;;
2021/08/22 17:48:18;;;;;;;0.85;0.50;;;;;;;31.14;31.89;100977.94;4748622;30;20123;-79
2021/08/22 17:58:25;;;;;;;2.17;1.00;;;;;;;29.36;34.97;100968.13;4772277;29;20058;-79
2021/08/22 18:00:58;;;;;;;0.68;0.40;;;;;;;28.96;35.71;100982.81;4738716;30;20052;-74
2021/08/22 18:03:34;;;;;;;0.73;0.68;;;;;;;28.57;36.86;101000.66;4822366;29;20048;-73
2021/08/22 18:06:00;;;;;;;0.98;0.50;;;;;;;28.24;37.58;100992.81;4908658;29;20040;-74
2021/08/22 18:11:35;;;;;;;1.15;1.10;;;;;;;27.68;38.77;101009.78;4948513;28;20066;-73
2021/08/22 18:14:00;;;;;;;0.90;0.52;;;;;;;27.38;38.93;101003.09;5008638;28;20781;-74
2021/08/22 18:16:28;;;;;;;0.75;0.65;;;;;;;27.15;40.01;101012.22;5011539;28;20277;-76
2021/08/22 18:19:13;;;;;;;0.65;0.40;;;;;;;26.93;39.64;101016.50;5025065;28;20094;-77
2021/08/22 18:21:40;;;;;;;2.30;0.47;;;;;;;26.73;40.69;101024.03;5011282;28;20026;-77
2021/08/22 18:24:11;;;;;;;1.30;0.80;;;;;;;26.38;41.55;101031.09;5010209;28;20113;-78
2021/08/22 18:30:25;;;;;;;0.75;0.75;;;;;;;25.43;42.51;101014.78;5007407;28;20045;-75
2021/08/22 18:37:09;;;;;;;2.70;0.60;;;;;;;24.96;44.10;101046.06;5009382;28;20033;-78
2021/08/22 18:40:41;;;;;;;0.80;0.45;;;;;;;24.57;45.04;101047.16;5013950;28;20049;-77
2021/08/22 18:43:29;;;;;;;2.30;0.55;;;;;;;24.20;45.04;101060.19;4941873;28;20390;-78
2021/08/22 18:49:29;;;;;;;;;;;;;;;;;;;;;
2021/08/22 18:51:57;;;;;;;2.88;0.65;;;;;;;23.00;48.61;101065.09;4939258;29;20099;-78
2021/08/22 18:54:37;;;;;;;;;;;;;;;;;;;;;
2021/08/22 18:57:14;;;;;;;0.60;0.60;;;;;;;22.24;50.89;101061.00;4899399;29;20123;-76
2021/08/22 18:59:40;;;;;;;0.75;0.75;;;;;;;21.82;51.86;101049.59;4905399;29;20060;-74
2021/08/22 19:02:05;;;;;;;0.93;0.82;;;;;;;21.58;52.95;101062.00;4902972;29;20020;-75
2021/08/22 19:04:41;;;;;;;2.45;0.50;;;;;;;21.26;53.32;101055.69;4901930;29;20051;-77
2021/08/22 19:10:18;;;;;;;0.75;0.40;;;;;;;20.74;55.86;101073.81;4903282;29;19915;-77
2021/08/22 19:12:57;;;;;;;;;;;;;;;;;;;;;
2021/08/22 19:15:23;;;;;;;1.30;1.20;;;;;;;20.34;57.22;101086.78;5000352;28;20172;-73
2021/08/22 19:17:49;;;;;;;2.83;0.60;;;;;;;20.10;58.58;101076.81;4966546;28;20050;-74
2021/08/22 19:20:25;;;;;;;;;;;;;;;;;;;;;
2021/08/22 19:23:41;;;;;;;0.85;0.70;;;;;;;19.98;58.10;101113.44;5002413;28;20125;-73
2021/08/22 19:26:17;;;;;;;;;;;;;;;;;;;;;
2021/08/22 19:28:43;;;;;;;2.42;0.80;;;;;;;19.51;59.89;101088.66;5002314;28;20449;-75
2021/08/22 19:31:10;;;;;;;0.55;0.55;;;;;;;19.57;60.87;101114.34;4998435;28;20057;-75
2021/08/22 19:33:35;;;;;;;6.18;0.60;;;;;;;19.45;60.98;101120.41;4999327;28;20121;-74
2021/08/22 19:36:24;;;;;;;4.82;0.50;;;;;;;19.35;61.70;101127.00;5001027;28;20050;-74
2021/08/22 19:39:00;;;;;;;;;;;;;;;;;;;;;
2021/08/22 19:41:35;;;;;;;2.05;0.68;;;;;;;18.98;62.84;101116.91;4983871;28;20117;-74
2021/08/22 19:44:01;;;;;;;0.95;0.80;;;;;;;18.96;63.02;101133.03;4999028;28;20121;-74
2021/08/22 19:46:34;;;;;;;1.02;0.70;;;;;;;18.76;63.41;101112.84;4981148;28;20066;-74
2021/08/22 19:49:12;;;;;;;;;;;;;;;;;;;;;
2021/08/22 19:51:43;;;;;;;0.80;0.70;;;;;;;18.65;63.88;101133.53;4995779;28;20122;-75
2021/08/22 19:54:10;;;;;;;1.52;0.70;;;;;;;18.57;64.80;101142.53;4987738;28;20058;-74
2021/08/22 19:56:37;;;;;;;5.45;1.10;;;;;;;18.48;64.67;101150.72;5002991;28;20503;-75
2021/08/22 19:59:03;;;;;;;4.57;0.85;;;;;;;18.36;64.29;101130.97;4988415;28;20026;-74
2021/08/22 20:01:31;;;;;;;1.73;0.80;;;;;;;18.40;64.84;101148.63;4998207;28;20036;-75
2021/08/22 20:03:57;;;;;;;0.93;0.77;;;;;;;18.35;64.64;101159.78;4981002;28;20053;-74
2021/08/22 20:06:24;;;;;;;1.02;0.73;;;;;;;18.30;65.08;101152.38;4980304;28;20029;-75
2021/08/22 20:08:50;;;;;;;5.18;1.05;;;;;;;18.23;64.71;101160.25;5017357;28;20038;-74
2021/08/22 20:11:15;;;;;;;0.73;0.73;;;;;;;18.10;65.78;101161.81;4997339;28;20404;-74
2021/08/22 20:13:41;;;;;;;1.83;0.80;;;;;;;18.07;66.18;101167.94;4986581;28;20025;-75
2021/08/22 20:16:07;;;;;;;1.88;0.80;;;;;;;17.97;66.47;101157.84;4971139;28;20464;-74
2021/08/22 20:18:33;;;;;;;1.38;0.70;;;;;;;17.88;66.16;101152.13;4997602;28;20024;-75
2021/08/22 20:24:23;;;;;;;0.50;0.50;;;;;;;17.89;64.87;101170.38;5016077;28;20427;-74
2021/08/22 20:26:53;;;;;;;1.35;0.40;;;;;;;17.82;64.63;101172.69;5016172;28;20038;-72
2021/08/22 20:29:19;;;;;;;0.30;0.30;;;;;;;17.89;64.47;101178.66;4979936;28;20030;-73
2021/08/22 20:31:44;;;;;;;0.28;0.28;;;;;;;17.82;63.96;101172.69;5014685;28;20440;-75
2021/08/22 20:34:10;;;;;;;1.10;0.20;;;;;;;17.84;63.90;101175.97;4982175;28;20114;-74
2021/08/22 20:36:38;;;;;;;0.50;0.50;;;;;;;17.79;64.30;101159.44;4995216;28;20739;-76
2021/08/22 20:39:03;;;;;;;1.05;0.40;;;;;;;17.79;63.88;101162.22;4995129;28;20040;-76
2021/08/22 20:41:33;;;;;;;0.68;0.68;;;;;;;17.79;63.88;101162.22;4997841;28;20093;-76
2021/08/22 20:44:00;;;;;;;2.72;0.80;;;;;;;17.69;64.91;101162.34;5003487;28;20060;-75
2021/08/22 20:46:25;;;;;;;0.90;0.60;;;;;;;17.82;64.88;101180.16;4999161;28;20026;-76
2021/08/22 20:48:51;;;;;;;0.93;0.55;;;;;;;17.70;64.87;101175.06;5005190;28;20032;-76
2021/08/22 20:52:03;;;;;;;;;;;;;;;;;;;;;
2021/08/22 20:54:34;;;;;;;1.27;0.50;;;;;;;17.51;65.80;101167.53;5017388;28;20097;-77
2021/08/22 20:57:18;;;;;;;5.22;1.00;;;;;;;17.47;66.11;101177.53;5000599;28;20041;-77
2021/08/22 20:59:55;;;;;;;2.05;0.70;;;;;;;17.33;66.56;101165.53;4998312;28;20125;-78
2021/08/22 21:02:29;;;;;;;4.75;1.08;;;;;;;17.22;67.11;101176.69;4983631;28;20117;-76
2021/08/22 21:05:08;;;;;;;;;;;;;;;;;;;;;
2021/08/22 21:07:36;;;;;;;1.13;0.82;;;;;;;17.05;67.62;101171.59;5018410;28;20085;-74
2021/08/22 21:10:07;;;;;;;1.55;1.10;;;;;;;17.12;68.26;101198.91;4998624;28;20044;-75
2021/08/22 21:12:36;;;;;;;0.82;0.60;;;;;;;16.88;68.18;101183.13;5001635;28;20064;-75
2021/08/22 21:15:34;;;;;;;;;;;;;;;;;;;;;
2021/08/22 21:18:11;;;;;;;2.92;0.82;;;;;;;16.73;68.60;101180.44;5007826;28;20099;-76
2021/08/22 21:20:49;;;;;;;;;;;;;;;;;;;;;
2021/08/22 21:23:23;;;;;;;0.93;0.75;;;;;;;16.75;67.97;101200.31;5015294;28;20112;-74
2021/08/22 21:25:49;;;;;;;0.73;0.73;;;;;;;16.72;68.45;101193.44;4998365;28;20048;-74
2021/08/22 21:28:14;;;;;;;0.65;0.60;;;;;;;16.80;68.76;101219.59;5000856;28;20050;-73
2021/08/22 21:30:40;;;;;;;0.85;0.85;;;;;;;16.79;68.62;101220.72;5003456;28;20065;-75
2021/08/22 21:33:06;;;;;;;0.57;0.57;;;;;;;16.75;68.63;101216.91;4998030;28;20026;-76
2021/08/22 21:35:34;;;;;;;0.70;0.70;;;;;;;16.67;68.69;101209.22;5003353;28;20029;-74
2021/08/22 21:37:59;;;;;;;1.00;0.90;;;;;;;16.63;68.80;101202.63;5003758;28;20025;-74
2021/08/22 21:40:31;;;;;;;0.88;0.70;;;;;;;16.58;69.27;101209.81;5006199;28;20026;-73
2021/08/22 21:43:00;;;;;;;5.57;1.00;;;;;;;16.54;69.39;101210.69;5001477;28;20022;-75
2021/08/22 21:45:25;;;;;;;1.02;0.82;;;;;;;16.54;69.31;101221.72;5006661;28;20041;-73
2021/08/22 21:47:51;;;;;;;1.13;0.93;;;;;;;16.45;69.99;101221.53;5013032;28;20014;-75
2021/08/22 21:50:19;;;;;;;0.80;0.57;;;;;;;16.54;69.50;101241.91;4983994;28;20038;-72
2021/08/22 21:52:47;;;;;;;0.75;0.68;;;;;;;16.47;69.39;101221.22;5008317;28;20030;-75
2021/08/22 21:55:45;;;;;;;0.77;0.73;;;;;;;16.57;69.21;101235.81;4992507;28;20053;-79
2021/08/22 21:58:33;;;;;;;1.17;0.57;;;;;;;16.62;69.50;101236.84;5009568;28;20029;-75
2021/08/22 22:01:09;;;;;;;;;;;;;;;;;;;;;
2021/08/22 22:03:37;;;;;;;1.73;0.63;;;;;;;16.58;69.36;101234.66;5019033;28;20089;-73
2021/08/22 22:09:22;;;;;;;0.55;0.55;;;;;;;16.50;68.88;101227.00;5003067;28;20038;-72
2021/08/22 22:12:24;;;;;;;;;;;;;;;;;;;;;
2021/08/22 22:15:34;;;;;;;2.08;1.25;;;;;;;16.58;69.39;101234.66;5025288;28;20068;-73
2021/08/22 22:35:26;;;;;;;;;;;;;;;;;;;;;
2021/08/22 22:45:09;;;;;;;1.65;0.80;;;;;;;17.00;69.00;101278.63;4892758;29;20073;-81
2021/08/22 22:48:20;;;;;;;4.40;1.20;;;;;;;17.00;68.95;101278.63;4888759;29;20037;-78
2021/08/22 22:51:30;;;;;;;0.90;0.90;;;;;;;16.99;69.42;101282.47;4792400;29;20077;-79
2021/08/22 22:54:38;;;;;;;0.70;0.70;;;;;;;16.86;69.09;101264.59;4809031;29;20042;-81
2021/08/22 23:11:13;;;;;;;0.50;0.50;;;;;;;16.86;69.00;101287.50;4832870;29;20117;-78
2021/08/22 23:13:39;;;;;;;1.20;0.60;;;;;;;16.68;69.17;101257.81;4815240;29;20129;-79
2021/08/22 23:16:05;;;;;;;0.77;0.57;;;;;;;16.88;69.06;101296.38;4860186;29;20064;-76
2021/08/22 23:18:43;;;;;;;;;;;;;;;;;;;;;
2021/08/22 23:27:55;;;;;;;0.50;0.50;;;;;;;17.18;68.76;101297.22;4935775;29;20054;-79
2021/08/22 23:30:37;;;;;;;;;;;;;;;;;;;;;
2021/08/22 23:33:22;;;;;;;;;;;;;;;;;;;;;
2021/08/22 23:40:04;;;;;;;0.60;0.35;;;;;;;17.16;68.09;101282.06;4950589;28;20393;-77
2021/08/22 23:46:28;;;;;;;0.43;0.40;;;;;;;17.25;67.56;101319.84;4903357;29;20052;-77
2021/08/22 23:52:47;;;;;;;;;;;;;;;;;;;;;
